createdAt,value
2019-02-14T00:00:20.143Z,76.00
2019-02-14T00:02:50.899Z,76.30
2019-02-14T00:05:21.768Z,76.20
2019-02-14T00:07:52.604Z,76.10
2019-02-14T00:10:23.506Z,76.50
2019-02-14T00:12:55.806Z,76.10
2019-02-14T00:15:26.727Z,76.00
2019-02-14T00:17:57.723Z,76.10
2019-02-14T00:20:28.659Z,76.10
2019-02-14T00:22:59.524Z,75.90
2019-02-14T00:25:30.508Z,75.80
2019-02-14T00:28:01.988Z,75.70
2019-02-14T00:30:32.843Z,75.70
2019-02-14T00:33:04.124Z,75.70
2019-02-14T00:35:35.086Z,75.80
2019-02-14T00:38:05.903Z,76.10
2019-02-14T00:40:36.694Z,76.40
2019-02-14T00:43:07.572Z,76.50
2019-02-14T00:45:38.568Z,76.70
2019-02-14T00:48:09.377Z,77.00
2019-02-14T00:50:40.480Z,77.00
2019-02-14T00:53:11.388Z,77.10
2019-02-14T00:55:42.178Z,77.40
2019-02-14T00:58:12.092Z,77.80
2019-02-14T01:00:41.804Z,78.40
2019-02-14T01:03:11.521Z,79.20
2019-02-14T01:05:42.160Z,78.80
2019-02-14T01:08:11.868Z,78.90
2019-02-14T01:10:41.910Z,79.20
2019-02-14T01:13:12.478Z,79.40
2019-02-14T01:15:43.838Z,79.60
2019-02-14T01:18:14.669Z,80.30
2019-02-14T01:20:45.613Z,80.40
2019-02-14T01:23:16.471Z,80.40
2019-02-14T01:25:47.338Z,80.40
2019-02-14T01:28:18.399Z,80.80
2019-02-14T01:30:49.263Z,81.10
2019-02-14T01:33:21.426Z,81.30
2019-02-14T01:35:52.668Z,81.10
2019-02-14T01:38:24.034Z,81.60
2019-02-14T01:40:54.914Z,81.40
2019-02-14T01:43:25.788Z,80.80
2019-02-14T01:45:56.714Z,81.30
2019-02-14T01:48:27.662Z,81.50
2019-02-14T01:50:58.576Z,81.60
2019-02-14T01:53:29.431Z,81.70
2019-02-14T01:56:00.427Z,82.00
2019-02-14T01:58:31.402Z,82.90
2019-02-14T02:01:02.351Z,82.30
2019-02-14T02:03:33.227Z,82.20
2019-02-14T02:06:04.103Z,81.90
2019-02-14T02:08:34.882Z,82.00
2019-02-14T02:11:06.545Z,81.80
2019-02-14T02:13:37.288Z,82.10
2019-02-14T02:16:08.268Z,82.30
2019-02-14T02:18:40.038Z,82.30
2019-02-14T02:21:10.891Z,82.30
2019-02-14T02:23:42.032Z,82.40
2019-02-14T02:26:13.033Z,82.50
2019-02-14T02:28:43.942Z,82.50
2019-02-14T02:31:14.733Z,82.30
2019-02-14T02:33:45.471Z,82.60
2019-02-14T02:36:16.389Z,82.30
2019-02-14T02:38:47.568Z,82.30
2019-02-14T02:41:18.614Z,82.40
2019-02-14T02:43:49.852Z,82.60
2019-02-14T02:46:20.828Z,82.60
2019-02-14T02:48:53.308Z,82.50
2019-02-14T02:51:24.409Z,82.70
2019-02-14T02:53:58.934Z,82.90
2019-02-14T02:56:31.689Z,83.00
2019-02-14T02:59:05.098Z,83.10
2019-02-14T03:01:38.650Z,83.20
2019-02-14T03:04:10.875Z,83.30
2019-02-14T03:06:41.938Z,83.30
2019-02-14T03:09:16.289Z,83.20
2019-02-14T03:11:52.628Z,83.20
2019-02-14T03:14:24.054Z,84.10
2019-02-14T03:16:56.975Z,83.30
2019-02-14T03:19:28.413Z,83.30
2019-02-14T03:22:04.129Z,83.50
2019-02-14T03:24:36.826Z,83.70
2019-02-14T03:27:16.898Z,83.80
2019-02-14T03:29:52.634Z,83.50
2019-02-14T03:32:29.403Z,83.70
2019-02-14T03:35:05.654Z,84.00
2019-02-14T03:37:40.383Z,83.80
2019-02-14T03:40:16.632Z,83.60
2019-02-14T03:42:48.574Z,83.70
2019-02-14T03:45:19.777Z,83.70
2019-02-14T03:47:51.365Z,83.70
2019-02-14T03:50:25.058Z,83.70
